sensor_id;sensor_type;location;lat;lon;timestamp;pressure;altitude;pressure_sealevel;temperature;humidity
61320;BME280;47202;41.440;-8.310;2023-01-31T13:07:37;101025.78;;;20.81;24.28
61320;BME280;47202;41.440;-8.310;2023-01-31T13:09:41;100990.38;;;20.34;24.70
61320;BME280;47202;41.440;-8.310;2023-01-31T13:12:12;101020.78;;;20.10;24.65
61320;BME280;47202;41.440;-8.310;2023-01-31T13:14:19;101022.00;;;19.87;25.31
61320;BME280;47202;41.440;-8.310;2023-01-31T13:16:25;101016.22;;;19.79;25.93
61320;BME280;47202;41.440;-8.310;2023-01-31T13:18:32;101008.41;;;19.92;24.71
61320;BME280;47202;41.440;-8.310;2023-01-31T13:20:53;101016.69;;;20.13;24.62
61320;BME280;47202;41.440;-8.310;2023-01-31T13:23:00;101013.22;;;20.28;24.69
61320;BME280;47202;41.440;-8.310;2023-01-31T13:25:28;100996.41;;;19.93;25.38
61320;BME280;47202;41.440;-8.310;2023-01-31T13:27:37;100995.25;;;19.84;25.41
61320;BME280;47202;41.440;-8.310;2023-01-31T13:32:19;100996.31;;;19.46;25.89
61320;BME280;47202;41.440;-8.310;2023-01-31T13:34:49;100984.06;;;19.48;25.68
61320;BME280;47202;41.440;-8.310;2023-01-31T13:37:16;100993.38;;;18.49;26.30
61320;BME280;47202;41.440;-8.310;2023-01-31T13:39:33;100982.03;;;17.91;27.68
61320;BME280;47202;41.440;-8.310;2023-01-31T13:41:36;100983.22;;;18.00;26.54
61320;BME280;47202;41.440;-8.310;2023-01-31T13:43:58;100972.03;;;17.97;26.97
61320;BME280;47202;41.440;-8.310;2023-01-31T13:46:03;100968.56;;;18.01;27.16
61320;BME280;47202;41.440;-8.310;2023-01-31T13:48:22;100967.00;;;18.05;26.54
61320;BME280;47202;41.440;-8.310;2023-01-31T13:50:38;100963.03;;;18.13;26.58
61320;BME280;47202;41.440;-8.310;2023-01-31T13:52:48;100957.19;;;18.04;26.86
61320;BME280;47202;41.440;-8.310;2023-01-31T13:54:56;100951.84;;;18.10;26.58
61320;BME280;47202;41.440;-8.310;2023-01-31T13:56:59;100947.31;;;18.15;26.21
61320;BME280;47202;41.440;-8.310;2023-01-31T13:59:01;100946.84;;;18.23;26.17
61320;BME280;47202;41.440;-8.310;2023-01-31T14:01:15;100941.53;;;18.12;26.45
61320;BME280;47202;41.440;-8.310;2023-01-31T14:03:19;100933.13;;;17.91;26.42
61320;BME280;47202;41.440;-8.310;2023-01-31T14:07:42;100935.34;;;17.77;26.26
61320;BME280;47202;41.440;-8.310;2023-01-31T14:11:50;100936.31;;;17.88;26.35
61320;BME280;47202;41.440;-8.310;2023-01-31T14:14:27;100939.56;;;17.85;26.64
61320;BME280;47202;41.440;-8.310;2023-01-31T14:16:36;100938.19;;;17.49;26.57
61320;BME280;47202;41.440;-8.310;2023-01-31T14:18:46;100925.25;;;16.88;26.94
61320;BME280;47202;41.440;-8.310;2023-01-31T14:20:47;100926.63;;;16.91;27.98
61320;BME280;47202;41.440;-8.310;2023-01-31T14:23:30;100931.47;;;16.60;27.29
61320;BME280;47202;41.440;-8.310;2023-01-31T14:25:49;100929.13;;;16.52;27.59
61320;BME280;47202;41.440;-8.310;2023-01-31T14:30:35;100928.72;;;17.00;26.98
61320;BME280;47202;41.440;-8.310;2023-01-31T14:32:38;100928.22;;;17.04;26.29
61320;BME280;47202;41.440;-8.310;2023-01-31T14:34:46;100916.72;;;17.13;26.29
61320;BME280;47202;41.440;-8.310;2023-01-31T14:57:14;100895.91;;;17.53;26.19
61320;BME280;47202;41.440;-8.310;2023-01-31T14:58:49;100905.78;;;17.42;26.25
61320;BME280;47202;41.440;-8.310;2023-01-31T15:00:55;100892.72;;;17.22;25.78
61320;BME280;47202;41.440;-8.310;2023-01-31T15:03:18;100895.81;;;17.14;26.46
61320;BME280;47202;41.440;-8.310;2023-01-31T15:05:44;100891.25;;;17.14;26.94
61320;BME280;47202;41.440;-8.310;2023-01-31T15:11:37;100889.44;;;17.20;27.11
61320;BME280;47202;41.440;-8.310;2023-01-31T15:12:57;100887.44;;;17.15;27.50
61320;BME280;47202;41.440;-8.310;2023-01-31T15:15:01;100890.59;;;17.07;27.89
61320;BME280;47202;41.440;-8.310;2023-01-31T15:17:13;100888.19;;;17.11;27.68
61320;BME280;47202;41.440;-8.310;2023-01-31T15:19:17;100885.16;;;17.07;27.71
61320;BME280;47202;41.440;-8.310;2023-01-31T15:21:29;100884.72;;;16.98;27.99
61320;BME280;47202;41.440;-8.310;2023-01-31T15:23:32;100877.91;;;16.96;28.02
61320;BME280;47202;41.440;-8.310;2023-01-31T15:25:41;100869.50;;;16.80;28.53
61320;BME280;47202;41.440;-8.310;2023-01-31T15:27:43;100874.19;;;16.85;28.80
61320;BME280;47202;41.440;-8.310;2023-01-31T15:30:11;100867.44;;;16.88;28.56
61320;BME280;47202;41.440;-8.310;2023-01-31T15:32:21;100875.13;;;16.91;28.96
61320;BME280;47202;41.440;-8.310;2023-01-31T15:34:36;100865.41;;;16.95;29.29
61320;BME280;47202;41.440;-8.310;2023-01-31T15:39:06;100867.94;;;16.85;29.23
61320;BME280;47202;41.440;-8.310;2023-01-31T15:43:23;100861.63;;;16.79;29.26
61320;BME280;47202;41.440;-8.310;2023-01-31T15:45:28;100872.00;;;16.70;29.77
61320;BME280;47202;41.440;-8.310;2023-01-31T15:47:31;100868.41;;;16.65;29.82
61320;BME280;47202;41.440;-8.310;2023-01-31T15:49:39;100865.59;;;16.59;30.03
61320;BME280;47202;41.440;-8.310;2023-01-31T15:51:42;100874.47;;;16.55;30.33
61320;BME280;47202;41.440;-8.310;2023-01-31T15:53:44;100872.75;;;16.37;30.56
61320;BME280;47202;41.440;-8.310;2023-01-31T15:55:47;100868.59;;;16.17;30.96
61320;BME280;47202;41.440;-8.310;2023-01-31T15:57:57;100873.81;;;16.07;31.35
61320;BME280;47202;41.440;-8.310;2023-01-31T15:59:59;100867.56;;;16.07;31.98
61320;BME280;47202;41.440;-8.310;2023-01-31T16:02:03;100875.34;;;16.03;32.12
61320;BME280;47202;41.440;-8.310;2023-01-31T16:04:07;100870.66;;;15.87;32.07
61320;BME280;47202;41.440;-8.310;2023-01-31T16:06:25;100871.50;;;15.64;32.61
61320;BME280;47202;41.440;-8.310;2023-01-31T16:08:32;100876.91;;;15.52;32.89
61320;BME280;47202;41.440;-8.310;2023-01-31T16:10:36;100871.50;;;15.40;33.25
61320;BME280;47202;41.440;-8.310;2023-01-31T16:12:39;100871.41;;;15.35;33.48
61320;BME280;47202;41.440;-8.310;2023-01-31T16:14:46;100867.63;;;15.24;33.83
61320;BME280;47202;41.440;-8.310;2023-01-31T16:16:51;100865.03;;;15.18;34.00
61320;BME280;47202;41.440;-8.310;2023-01-31T16:18:54;100866.19;;;15.10;34.52
61320;BME280;47202;41.440;-8.310;2023-01-31T16:20:56;100860.06;;;15.03;34.42
61320;BME280;47202;41.440;-8.310;2023-01-31T16:23:31;100867.00;;;14.87;34.29
61320;BME280;47202;41.440;-8.310;2023-01-31T16:25:34;100865.22;;;14.81;35.00
61320;BME280;47202;41.440;-8.310;2023-01-31T16:27:37;100865.09;;;14.76;35.03
61320;BME280;47202;41.440;-8.310;2023-01-31T16:29:46;100862.56;;;14.62;35.04
61320;BME280;47202;41.440;-8.310;2023-01-31T16:31:50;100862.91;;;14.54;34.87
61320;BME280;47202;41.440;-8.310;2023-01-31T16:33:54;100862.16;;;14.47;34.73
61320;BME280;47202;41.440;-8.310;2023-01-31T16:36:03;100856.75;;;14.47;35.22
61320;BME280;47202;41.440;-8.310;2023-01-31T16:38:22;100856.78;;;14.29;34.68
61320;BME280;47202;41.440;-8.310;2023-01-31T16:40:29;100855.44;;;14.19;35.20
61320;BME280;47202;41.440;-8.310;2023-01-31T16:42:31;100850.16;;;14.13;35.07
61320;BME280;47202;41.440;-8.310;2023-01-31T16:44:39;100851.03;;;14.07;35.20
61320;BME280;47202;41.440;-8.310;2023-01-31T16:46:43;100850.31;;;13.99;35.35
61320;BME280;47202;41.440;-8.310;2023-01-31T16:49:06;100854.28;;;13.97;35.53
61320;BME280;47202;41.440;-8.310;2023-01-31T16:51:40;100860.66;;;13.84;36.13
61320;BME280;47202;41.440;-8.310;2023-01-31T16:53:41;100859.06;;;13.76;36.34
61320;BME280;47202;41.440;-8.310;2023-01-31T16:55:42;100855.41;;;13.71;36.34
61320;BME280;47202;41.440;-8.310;2023-01-31T16:57:43;100870.22;;;13.61;36.79
61320;BME280;47202;41.440;-8.310;2023-01-31T16:59:48;100850.22;;;13.51;37.23
61320;BME280;47202;41.440;-8.310;2023-01-31T17:01:56;100852.00;;;13.38;37.25
61320;BME280;47202;41.440;-8.310;2023-01-31T17:04:20;100870.28;;;13.36;37.41
61320;BME280;47202;41.440;-8.310;2023-01-31T17:06:21;100863.69;;;13.26;38.02
61320;BME280;47202;41.440;-8.310;2023-01-31T17:08:22;100870.41;;;13.16;38.09
61320;BME280;47202;41.440;-8.310;2023-01-31T17:10:28;100856.28;;;12.96;38.97
61320;BME280;47202;41.440;-8.310;2023-01-31T17:12:32;100864.81;;;12.93;38.75
61320;BME280;47202;41.440;-8.310;2023-01-31T17:14:34;100864.47;;;12.83;39.28
61320;BME280;47202;41.440;-8.310;2023-01-31T17:16:34;100871.09;;;12.80;39.40
61320;BME280;47202;41.440;-8.310;2023-01-31T17:18:35;100874.91;;;12.72;41.08
61320;BME280;47202;41.440;-8.310;2023-01-31T17:20:48;100875.38;;;12.63;43.23
61320;BME280;47202;41.440;-8.310;2023-01-31T17:22:50;100872.53;;;12.51;45.66
61320;BME280;47202;41.440;-8.310;2023-01-31T17:24:51;100871.59;;;12.39;45.64
61320;BME280;47202;41.440;-8.310;2023-01-31T17:26:52;100879.31;;;12.28;46.84
61320;BME280;47202;41.440;-8.310;2023-01-31T17:28:53;100867.16;;;12.12;48.91
61320;BME280;47202;41.440;-8.310;2023-01-31T17:30:55;100883.31;;;12.06;50.55
61320;BME280;47202;41.440;-8.310;2023-01-31T17:32:57;100870.75;;;11.93;51.38
61320;BME280;47202;41.440;-8.310;2023-01-31T17:34:58;100886.03;;;11.86;51.24
61320;BME280;47202;41.440;-8.310;2023-01-31T17:36:59;100886.25;;;11.78;52.94
61320;BME280;47202;41.440;-8.310;2023-01-31T17:39:00;100875.94;;;11.68;53.13
61320;BME280;47202;41.440;-8.310;2023-01-31T17:41:01;100887.13;;;11.58;53.58
61320;BME280;47202;41.440;-8.310;2023-01-31T17:43:04;100888.38;;;11.49;54.18
61320;BME280;47202;41.440;-8.310;2023-01-31T17:45:06;100879.72;;;11.34;54.02
61320;BME280;47202;41.440;-8.310;2023-01-31T17:49:27;100879.31;;;11.10;55.03
61320;BME280;47202;41.440;-8.310;2023-01-31T17:51:30;100882.22;;;11.02;56.83
61320;BME280;47202;41.440;-8.310;2023-01-31T17:53:31;100882.00;;;10.90;57.15
61320;BME280;47202;41.440;-8.310;2023-01-31T17:55:32;100876.22;;;10.80;57.02
61320;BME280;47202;41.440;-8.310;2023-01-31T17:57:33;100876.00;;;10.68;57.35
61320;BME280;47202;41.440;-8.310;2023-01-31T17:59:34;100888.34;;;10.62;57.41
61320;BME280;47202;41.440;-8.310;2023-01-31T18:01:35;100880.88;;;10.45;59.00
61320;BME280;47202;41.440;-8.310;2023-01-31T18:03:40;100884.34;;;10.32;58.62
61320;BME280;47202;41.440;-8.310;2023-01-31T18:05:50;100884.50;;;10.23;60.56
61320;BME280;47202;41.440;-8.310;2023-01-31T18:07:52;100893.09;;;10.12;59.42
61320;BME280;47202;41.440;-8.310;2023-01-31T18:09:55;100890.16;;;10.00;60.59
61320;BME280;47202;41.440;-8.310;2023-01-31T18:11:56;100896.94;;;9.90;60.59
61320;BME280;47202;41.440;-8.310;2023-01-31T18:13:57;100898.94;;;9.81;60.79
61320;BME280;47202;41.440;-8.310;2023-01-31T18:16:08;100886.25;;;9.62;61.22
61320;BME280;47202;41.440;-8.310;2023-01-31T18:18:10;100888.25;;;9.53;62.04
61320;BME280;47202;41.440;-8.310;2023-01-31T18:20:13;100882.16;;;9.37;61.51
61320;BME280;47202;41.440;-8.310;2023-01-31T18:22:16;100869.94;;;9.28;62.16
61320;BME280;47202;41.440;-8.310;2023-01-31T18:24:17;100893.91;;;9.36;61.90
61320;BME280;47202;41.440;-8.310;2023-01-31T18:26:24;100889.91;;;9.26;62.61
61320;BME280;47202;41.440;-8.310;2023-01-31T18:28:47;100853.22;;;8.98;62.59
61320;BME280;47202;41.440;-8.310;2023-01-31T18:31:22;100893.72;;;9.10;62.41
61320;BME280;47202;41.440;-8.310;2023-01-31T18:33:38;100911.25;;;9.12;63.30
61320;BME280;47202;41.440;-8.310;2023-01-31T18:36:15;100899.31;;;8.93;63.14
61320;BME280;47202;41.440;-8.310;2023-01-31T18:38:16;100906.78;;;8.98;64.01
61320;BME280;47202;41.440;-8.310;2023-01-31T18:40:17;100909.81;;;8.95;64.49
61320;BME280;47202;41.440;-8.310;2023-01-31T18:42:19;100915.75;;;8.90;64.59
61320;BME280;47202;41.440;-8.310;2023-01-31T18:44:20;100920.66;;;8.87;64.05
61320;BME280;47202;41.440;-8.310;2023-01-31T18:46:23;100910.28;;;8.77;64.02
61320;BME280;47202;41.440;-8.310;2023-01-31T18:48:25;100910.59;;;8.67;64.23
61320;BME280;47202;41.440;-8.310;2023-01-31T18:50:27;100918.38;;;8.62;64.55
61320;BME280;47202;41.440;-8.310;2023-01-31T18:52:28;100913.69;;;8.49;64.46
61320;BME280;47202;41.440;-8.310;2023-01-31T18:59:10;100924.78;;;8.31;66.37
61320;BME280;47202;41.440;-8.310;2023-01-31T19:01:17;100912.03;;;8.19;66.46
61320;BME280;47202;41.440;-8.310;2023-01-31T19:03:18;100912.91;;;8.19;66.44
61320;BME280;47202;41.440;-8.310;2023-01-31T19:05:24;100912.91;;;8.19;67.23
61320;BME280;47202;41.440;-8.310;2023-01-31T19:07:27;100920.28;;;8.17;66.62
61320;BME280;47202;41.440;-8.310;2023-01-31T19:09:29;100910.50;;;8.09;66.37
61320;BME280;47202;41.440;-8.310;2023-01-31T19:11:31;100915.50;;;7.98;66.48
61320;BME280;47202;41.440;-8.310;2023-01-31T19:13:32;100900.94;;;7.85;66.47
61320;BME280;47202;41.440;-8.310;2023-01-31T19:15:33;100916.97;;;7.85;66.86
61320;BME280;47202;41.440;-8.310;2023-01-31T19:17:35;100923.69;;;7.81;67.40
61320;BME280;47202;41.440;-8.310;2023-01-31T19:19:40;100896.50;;;7.63;67.51
61320;BME280;47202;41.440;-8.310;2023-01-31T19:21:41;100910.13;;;7.68;67.64
61320;BME280;47202;41.440;-8.310;2023-01-31T19:23:46;100905.97;;;7.65;68.22
61320;BME280;47202;41.440;-8.310;2023-01-31T19:26:10;100907.19;;;7.63;68.45
61320;BME280;47202;41.440;-8.310;2023-01-31T19:28:14;100910.22;;;7.60;69.16
61320;BME280;47202;41.440;-8.310;2023-01-31T19:30:30;100884.31;;;7.45;69.01
61320;BME280;47202;41.440;-8.310;2023-01-31T19:32:31;100900.91;;;7.56;69.02
61320;BME280;47202;41.440;-8.310;2023-01-31T19:34:33;100903.13;;;7.52;69.31
61320;BME280;47202;41.440;-8.310;2023-01-31T19:36:37;100906.34;;;7.48;69.58
61320;BME280;47202;41.440;-8.310;2023-01-31T19:38:41;100922.66;;;7.53;69.91
61320;BME280;47202;41.440;-8.310;2023-01-31T19:40:42;100911.69;;;7.48;70.84
61320;BME280;47202;41.440;-8.310;2023-01-31T19:42:43;100918.75;;;7.40;71.14
61320;BME280;47202;41.440;-8.310;2023-01-31T19:44:45;100920.31;;;7.35;70.99
61320;BME280;47202;41.440;-8.310;2023-01-31T19:46:51;100925.19;;;7.31;71.07
61320;BME280;47202;41.440;-8.310;2023-01-31T19:48:56;100907.75;;;7.20;71.26
61320;BME280;47202;41.440;-8.310;2023-01-31T19:50:57;100911.72;;;7.24;72.19
61320;BME280;47202;41.440;-8.310;2023-01-31T19:52:58;100916.78;;;7.19;72.23
61320;BME280;47202;41.440;-8.310;2023-01-31T19:54:59;100918.50;;;7.12;72.16
61320;BME280;47202;41.440;-8.310;2023-01-31T19:57:00;100918.25;;;6.99;72.09
61320;BME280;47202;41.440;-8.310;2023-01-31T19:59:01;100922.59;;;7.00;72.90
61320;BME280;47202;41.440;-8.310;2023-01-31T20:01:08;100925.66;;;6.97;73.84
61320;BME280;47202;41.440;-8.310;2023-01-31T20:03:09;100916.16;;;6.94;73.69
61320;BME280;47202;41.440;-8.310;2023-01-31T20:07:18;100904.69;;;6.86;73.75
61320;BME280;47202;41.440;-8.310;2023-01-31T20:09:25;100870.00;;;6.63;73.46
61320;BME280;47202;41.440;-8.310;2023-01-31T20:11:30;100860.75;;;6.50;73.29
61320;BME280;47202;41.440;-8.310;2023-01-31T20:13:34;100873.25;;;6.50;73.56
61320;BME280;47202;41.440;-8.310;2023-01-31T20:15:35;100859.16;;;6.41;73.71
61320;BME280;47202;41.440;-8.310;2023-01-31T20:17:48;100884.59;;;6.52;73.39
61320;BME280;47202;41.440;-8.310;2023-01-31T20:19:49;100914.66;;;6.69;73.62
61320;BME280;47202;41.440;-8.310;2023-01-31T20:21:49;100911.84;;;6.62;73.17
61320;BME280;47202;41.440;-8.310;2023-01-31T20:23:51;100906.22;;;6.57;72.66
61320;BME280;47202;41.440;-8.310;2023-01-31T20:25:52;100906.69;;;6.60;72.50
61320;BME280;47202;41.440;-8.310;2023-01-31T20:27:53;100900.22;;;6.55;72.85
61320;BME280;47202;41.440;-8.310;2023-01-31T20:29:56;100902.78;;;6.48;72.99
61320;BME280;47202;41.440;-8.310;2023-01-31T20:31:57;100903.94;;;6.46;72.80
61320;BME280;47202;41.440;-8.310;2023-01-31T20:33:58;100917.13;;;6.47;73.63
61320;BME280;47202;41.440;-8.310;2023-01-31T20:35:59;100910.00;;;6.39;73.11
61320;BME280;47202;41.440;-8.310;2023-01-31T20:38:00;100905.72;;;6.30;73.29
61320;BME280;47202;41.440;-8.310;2023-01-31T20:40:01;100910.38;;;6.28;73.63
61320;BME280;47202;41.440;-8.310;2023-01-31T20:42:02;100914.59;;;6.23;73.75
61320;BME280;47202;41.440;-8.310;2023-01-31T20:44:03;100911.44;;;6.19;73.82
61320;BME280;47202;41.440;-8.310;2023-01-31T20:46:07;100922.59;;;6.14;74.37
61320;BME280;47202;41.440;-8.310;2023-01-31T20:48:08;100917.31;;;6.06;74.61
61320;BME280;47202;41.440;-8.310;2023-01-31T20:50:09;100920.81;;;6.07;74.60
61320;BME280;47202;41.440;-8.310;2023-01-31T20:52:10;100926.97;;;6.07;75.40
61320;BME280;47202;41.440;-8.310;2023-01-31T20:54:11;100926.44;;;6.12;75.65
61320;BME280;47202;41.440;-8.310;2023-01-31T20:56:12;100927.47;;;6.03;75.39
61320;BME280;47202;41.440;-8.310;2023-01-31T20:58:13;100924.03;;;5.94;75.50
61320;BME280;47202;41.440;-8.310;2023-01-31T21:00:15;100926.97;;;5.91;75.74
61320;BME280;47202;41.440;-8.310;2023-01-31T21:02:16;100919.34;;;5.88;75.75
61320;BME280;47202;41.440;-8.310;2023-01-31T21:04:17;100935.00;;;5.83;76.30
61320;BME280;47202;41.440;-8.310;2023-01-31T21:06:18;100925.88;;;5.77;76.37
61320;BME280;47202;41.440;-8.310;2023-01-31T21:08:20;100926.19;;;5.74;76.68
61320;BME280;47202;41.440;-8.310;2023-01-31T21:10:21;100921.22;;;5.71;76.34
61320;BME280;47202;41.440;-8.310;2023-01-31T21:12:22;100922.41;;;5.68;76.10
61320;BME280;47202;41.440;-8.310;2023-01-31T21:14:23;100920.41;;;5.62;76.15
61320;BME280;47202;41.440;-8.310;2023-01-31T21:16:24;100924.91;;;5.62;76.49
61320;BME280;47202;41.440;-8.310;2023-01-31T21:18:26;100928.56;;;5.61;76.66
61320;BME280;47202;41.440;-8.310;2023-01-31T21:20:27;100928.25;;;5.56;76.39
61320;BME280;47202;41.440;-8.310;2023-01-31T21:22:29;100912.78;;;5.43;76.55
61320;BME280;47202;41.440;-8.310;2023-01-31T21:24:30;100912.59;;;5.36;77.31
61320;BME280;47202;41.440;-8.310;2023-01-31T21:26:31;100923.09;;;5.38;77.35
61320;BME280;47202;41.440;-8.310;2023-01-31T21:28:32;100924.59;;;5.40;78.56
61320;BME280;47202;41.440;-8.310;2023-01-31T21:30:34;100918.78;;;5.37;77.73
61320;BME280;47202;41.440;-8.310;2023-01-31T21:32:35;100920.94;;;5.33;77.82
61320;BME280;47202;41.440;-8.310;2023-01-31T21:34:36;100922.44;;;5.36;78.05
61320;BME280;47202;41.440;-8.310;2023-01-31T21:36:36;100915.44;;;5.26;78.95
61320;BME280;47202;41.440;-8.310;2023-01-31T21:38:38;100929.78;;;5.25;79.49
61320;BME280;47202;41.440;-8.310;2023-01-31T21:40:39;100929.09;;;5.31;81.22
61320;BME280;47202;41.440;-8.310;2023-01-31T21:42:40;100932.91;;;5.29;81.12
61320;BME280;47202;41.440;-8.310;2023-01-31T21:44:42;100935.75;;;5.27;80.87
61320;BME280;47202;41.440;-8.310;2023-01-31T21:46:43;100928.13;;;5.24;80.55
61320;BME280;47202;41.440;-8.310;2023-01-31T21:48:46;100920.28;;;5.23;81.62
61320;BME280;47202;41.440;-8.310;2023-01-31T21:50:47;100928.28;;;5.23;81.46
61320;BME280;47202;41.440;-8.310;2023-01-31T21:52:48;100914.63;;;5.09;81.69
61320;BME280;47202;41.440;-8.310;2023-01-31T21:54:49;100930.25;;;5.04;81.87
61320;BME280;47202;41.440;-8.310;2023-01-31T21:56:51;100934.59;;;4.97;82.05
61320;BME280;47202;41.440;-8.310;2023-01-31T21:58:53;100929.25;;;4.89;82.19
61320;BME280;47202;41.440;-8.310;2023-01-31T22:01:00;100926.09;;;4.85;82.35
61320;BME280;47202;41.440;-8.310;2023-01-31T22:03:01;100923.75;;;4.82;82.66
61320;BME280;47202;41.440;-8.310;2023-01-31T22:05:02;100913.13;;;4.74;83.01
61320;BME280;47202;41.440;-8.310;2023-01-31T22:07:07;100923.75;;;4.82;83.13
61320;BME280;47202;41.440;-8.310;2023-01-31T22:09:12;100921.09;;;4.82;83.43
61320;BME280;47202;41.440;-8.310;2023-01-31T22:11:13;100922.59;;;4.77;83.19
61320;BME280;47202;41.440;-8.310;2023-01-31T22:13:14;100928.06;;;4.75;82.85
61320;BME280;47202;41.440;-8.310;2023-01-31T22:15:15;100923.59;;;4.76;82.74
61320;BME280;47202;41.440;-8.310;2023-01-31T22:17:16;100927.56;;;4.72;83.18
61320;BME280;47202;41.440;-8.310;2023-01-31T22:19:17;100914.59;;;4.60;83.78
61320;BME280;47202;41.440;-8.310;2023-01-31T22:21:21;100918.91;;;4.61;83.84
61320;BME280;47202;41.440;-8.310;2023-01-31T22:23:22;100922.56;;;4.60;84.42
61320;BME280;47202;41.440;-8.310;2023-01-31T22:25:23;100924.56;;;4.58;84.40
61320;BME280;47202;41.440;-8.310;2023-01-31T22:27:24;100917.56;;;4.57;84.55
61320;BME280;47202;41.440;-8.310;2023-01-31T22:29:25;100924.72;;;4.57;84.70
61320;BME280;47202;41.440;-8.310;2023-01-31T22:31:26;100920.72;;;4.53;85.48
61320;BME280;47202;41.440;-8.310;2023-01-31T22:33:31;100929.69;;;4.52;85.95
61320;BME280;47202;41.440;-8.310;2023-01-31T22:35:32;100922.03;;;4.48;85.45
61320;BME280;47202;41.440;-8.310;2023-01-31T22:37:33;100918.19;;;4.43;85.85
61320;BME280;47202;41.440;-8.310;2023-01-31T22:39:34;100928.31;;;4.39;85.60
61320;BME280;47202;41.440;-8.310;2023-01-31T22:41:35;100925.16;;;4.36;86.14
61320;BME280;47202;41.440;-8.310;2023-01-31T22:43:41;100924.16;;;4.29;85.82
61320;BME280;47202;41.440;-8.310;2023-01-31T22:45:47;100916.66;;;4.24;85.95
61320;BME280;47202;41.440;-8.310;2023-01-31T22:47:48;100916.66;;;4.24;86.29
61320;BME280;47202;41.440;-8.310;2023-01-31T22:49:49;100920.50;;;4.30;86.32
61320;BME280;47202;41.440;-8.310;2023-01-31T22:51:50;100925.81;;;4.30;87.12
61320;BME280;47202;41.440;-8.310;2023-01-31T22:53:52;100921.97;;;4.24;87.07
61320;BME280;47202;41.440;-8.310;2023-01-31T22:55:53;100923.13;;;4.21;86.47
61320;BME280;47202;41.440;-8.310;2023-01-31T22:57:54;100922.28;;;4.21;88.01
61320;BME280;47202;41.440;-8.310;2023-01-31T22:59:57;100926.09;;;4.18;87.82
61320;BME280;47202;41.440;-8.310;2023-01-31T23:01:58;100917.91;;;4.12;87.57
61320;BME280;47202;41.440;-8.310;2023-01-31T23:04:02;100916.94;;;4.13;88.33
61320;BME280;47202;41.440;-8.310;2023-01-31T23:06:03;100913.75;;;4.09;88.46
61320;BME280;47202;41.440;-8.310;2023-01-31T23:08:04;100916.41;;;4.09;88.67
61320;BME280;47202;41.440;-8.310;2023-01-31T23:12:07;100911.44;;;4.06;89.95
61320;BME280;47202;41.440;-8.310;2023-01-31T23:14:08;100919.41;;;4.06;90.17
61320;BME280;47202;41.440;-8.310;2023-01-31T23:16:15;100917.41;;;4.00;90.14
61320;BME280;47202;41.440;-8.310;2023-01-31T23:18:16;100915.56;;;4.00;90.50
61320;BME280;47202;41.440;-8.310;2023-01-31T23:20:18;100917.22;;;4.01;90.45
61320;BME280;47202;41.440;-8.310;2023-01-31T23:22:20;100917.91;;;4.03;90.36
61320;BME280;47202;41.440;-8.310;2023-01-31T23:24:21;100925.72;;;4.05;90.13
61320;BME280;47202;41.440;-8.310;2023-01-31T23:26:21;100932.81;;;4.04;89.74
61320;BME280;47202;41.440;-8.310;2023-01-31T23:28:22;100935.13;;;3.99;89.99
61320;BME280;47202;41.440;-8.310;2023-01-31T23:30:23;100924.47;;;3.91;90.03
61320;BME280;47202;41.440;-8.310;2023-01-31T23:32:24;100934.78;;;3.94;89.90
61320;BME280;47202;41.440;-8.310;2023-01-31T23:34:26;100923.13;;;3.87;89.91
61320;BME280;47202;41.440;-8.310;2023-01-31T23:36:30;100933.06;;;3.85;90.05
61320;BME280;47202;41.440;-8.310;2023-01-31T23:38:31;100930.53;;;3.75;90.14
61320;BME280;47202;41.440;-8.310;2023-01-31T23:40:32;100932.81;;;3.70;90.55
61320;BME280;47202;41.440;-8.310;2023-01-31T23:42:33;100936.16;;;3.72;90.10
61320;BME280;47202;41.440;-8.310;2023-01-31T23:44:34;100930.84;;;3.72;90.12
61320;BME280;47202;41.440;-8.310;2023-01-31T23:46:35;100933.97;;;3.68;89.98
61320;BME280;47202;41.440;-8.310;2023-01-31T23:48:36;100936.94;;;3.65;90.11
61320;BME280;47202;41.440;-8.310;2023-01-31T23:50:39;100936.59;;;3.59;89.92
61320;BME280;47202;41.440;-8.310;2023-01-31T23:52:39;100933.19;;;3.49;89.33
61320;BME280;47202;41.440;-8.310;2023-01-31T23:54:40;100921.06;;;3.47;89.73
61320;BME280;47202;41.440;-8.310;2023-01-31T23:56:41;100928.88;;;3.48;89.91
61320;BME280;47202;41.440;-8.310;2023-01-31T23:58:42;100933.19;;;3.49;90.15
